SBOSBO NAS / MYNN
Speedbird OnlineSpeedbird Online NAS / MYNN

Lynden Pindling International Airport
09:06 25°C

Location Nassau, Bahamas
Latitude: 25.0389995575
Longitude: -77.46620178219999
Web Airport Website | Wikipedia
Altitude 5 Meter / 16 Feet
Distance 7,017 KM / 4,360 Miles
from London.
Time Zone UTC -5 hours (America/Nassau)
Codes IATA: NAS
ICAO: MYNN
Currency £1 equals 0.00
Runways
RunwayLength (m)Surface
102522Asphalt
143460Asphalt
282522Asphalt
323460Asphalt
Radio
TypeDescriptionFrequency
APPAPP121
ATISATIS118.7
CLDCLNC DEL118.3
CTAFCTAF122.95
GNDGND121.7
RDORDO128
TWRTWR119.5
UNICUNICOM123
Live ATC
METAR MYNN 311300Z VRB02KT CAVOK 24/21 A3020
TAF MYNN 311030Z 3112/0112 12010KT 9999 FEW025
Weather As Of 31 Jan 2023 09:06
Description Few clouds
Wind 9 km/h from South-East (130°)
Cloud Cover 20%
Precipitation Rain: none, Snow: none
Sunrise 06:53
Sunset 17:53
Lounges The Lignum Club , Main Terminal
Rotations During the last 90 days there were
73 flights from LHR
45 flights from GCM
21 flights from PLS
70 flights to LHR
52 flights to GCM
21 flights to PLS



Support Speedbird Online

© 2017-2023 Speedbird Online